sensor_id;sensor_type;location;lat;lon;timestamp;P1;durP1;ratioP1;P2;durP2;ratioP2
78824;SDS011;68176;45.554;10.220;2024-03-23T00:51:58;3.92;;;3.13;;
78824;SDS011;68176;45.554;10.220;2024-03-23T00:54:28;6.38;;;4.20;;
78824;SDS011;68176;45.554;10.220;2024-03-23T00:56:58;4.25;;;3.20;;
78824;SDS011;68176;45.554;10.220;2024-03-23T00:59:28;4.97;;;3.38;;
78824;SDS011;68176;45.554;10.220;2024-03-23T01:01:58;3.97;;;2.95;;
78824;SDS011;68176;45.554;10.220;2024-03-23T01:04:28;4.55;;;2.92;;
78824;SDS011;68176;45.554;10.220;2024-03-23T01:06:58;5.22;;;3.45;;
78824;SDS011;68176;45.554;10.220;2024-03-23T01:09:28;4.55;;;3.58;;
78824;SDS011;68176;45.554;10.220;2024-03-23T01:11:58;4.05;;;3.00;;
78824;SDS011;68176;45.554;10.220;2024-03-23T01:14:28;5.78;;;3.08;;
78824;SDS011;68176;45.554;10.220;2024-03-23T01:16:58;7.38;;;3.58;;
78824;SDS011;68176;45.554;10.220;2024-03-23T01:19:28;4.35;;;2.83;;
78824;SDS011;68176;45.554;10.220;2024-03-23T01:21:58;7.38;;;3.28;;
78824;SDS011;68176;45.554;10.220;2024-03-23T01:24:28;5.38;;;3.50;;
78824;SDS011;68176;45.554;10.220;2024-03-23T01:26:58;3.97;;;3.10;;
78824;SDS011;68176;45.554;10.220;2024-03-23T01:29:28;5.05;;;3.67;;
78824;SDS011;68176;45.554;10.220;2024-03-23T01:31:59;3.97;;;3.20;;
78824;SDS011;68176;45.554;10.220;2024-03-23T01:34:29;5.00;;;3.28;;
78824;SDS011;68176;45.554;10.220;2024-03-23T01:36:58;5.25;;;4.15;;
78824;SDS011;68176;45.554;10.220;2024-03-23T01:39:29;5.22;;;3.65;;
78824;SDS011;68176;45.554;10.220;2024-03-23T01:41:58;4.30;;;3.00;;
78824;SDS011;68176;45.554;10.220;2024-03-23T01:44:29;4.13;;;3.30;;
78824;SDS011;68176;45.554;10.220;2024-03-23T01:46:58;6.15;;;3.92;;
78824;SDS011;68176;45.554;10.220;2024-03-23T01:49:29;4.15;;;3.15;;
78824;SDS011;68176;45.554;10.220;2024-03-23T01:51:59;4.22;;;2.97;;
78824;SDS011;68176;45.554;10.220;2024-03-23T01:54:28;3.60;;;2.70;;
78824;SDS011;68176;45.554;10.220;2024-03-23T01:56:59;4.43;;;3.20;;
78824;SDS011;68176;45.554;10.220;2024-03-23T01:59:29;4.60;;;2.95;;
78824;SDS011;68176;45.554;10.220;2024-03-23T02:01:58;5.00;;;3.75;;
78824;SDS011;68176;45.554;10.220;2024-03-23T02:04:29;4.07;;;3.10;;
78824;SDS011;68176;45.554;10.220;2024-03-23T02:06:59;3.92;;;2.85;;
78824;SDS011;68176;45.554;10.220;2024-03-23T02:09:29;5.43;;;4.10;;
78824;SDS011;68176;45.554;10.220;2024-03-23T02:11:59;3.47;;;2.45;;
78824;SDS011;68176;45.554;10.220;2024-03-23T02:14:29;4.85;;;3.47;;
78824;SDS011;68176;45.554;10.220;2024-03-23T02:16:59;6.15;;;3.78;;
78824;SDS011;68176;45.554;10.220;2024-03-23T02:19:29;4.90;;;3.13;;
78824;SDS011;68176;45.554;10.220;2024-03-23T02:21:59;4.32;;;3.15;;
78824;SDS011;68176;45.554;10.220;2024-03-23T02:24:29;4.28;;;2.47;;
78824;SDS011;68176;45.554;10.220;2024-03-23T02:26:59;5.68;;;3.72;;
78824;SDS011;68176;45.554;10.220;2024-03-23T02:29:29;5.03;;;3.20;;
78824;SDS011;68176;45.554;10.220;2024-03-23T02:34:29;6.53;;;3.28;;
78824;SDS011;68176;45.554;10.220;2024-03-23T02:36:59;4.25;;;2.88;;
78824;SDS011;68176;45.554;10.220;2024-03-23T02:39:29;5.53;;;3.33;;
78824;SDS011;68176;45.554;10.220;2024-03-23T02:41:59;4.40;;;2.90;;
78824;SDS011;68176;45.554;10.220;2024-03-23T02:44:29;4.70;;;3.25;;
78824;SDS011;68176;45.554;10.220;2024-03-23T02:46:59;3.83;;;2.80;;
78824;SDS011;68176;45.554;10.220;2024-03-23T02:49:29;4.13;;;2.78;;
78824;SDS011;68176;45.554;10.220;2024-03-23T02:51:59;5.50;;;3.15;;
78824;SDS011;68176;45.554;10.220;2024-03-23T02:54:29;4.65;;;2.65;;
78824;SDS011;68176;45.554;10.220;2024-03-23T02:56:59;4.55;;;3.10;;
78824;SDS011;68176;45.554;10.220;2024-03-23T02:59:29;4.47;;;3.22;;
78824;SDS011;68176;45.554;10.220;2024-03-23T03:01:59;4.18;;;2.90;;
78824;SDS011;68176;45.554;10.220;2024-03-23T03:04:29;5.90;;;4.47;;
78824;SDS011;68176;45.554;10.220;2024-03-23T03:06:59;4.28;;;3.13;;
78824;SDS011;68176;45.554;10.220;2024-03-23T03:09:29;3.92;;;2.50;;
78824;SDS011;68176;45.554;10.220;2024-03-23T03:11:59;3.60;;;2.47;;
78824;SDS011;68176;45.554;10.220;2024-03-23T03:14:29;4.50;;;3.20;;
78824;SDS011;68176;45.554;10.220;2024-03-23T03:16:59;4.40;;;2.75;;
78824;SDS011;68176;45.554;10.220;2024-03-23T03:19:29;5.00;;;3.45;;
78824;SDS011;68176;45.554;10.220;2024-03-23T03:21:59;3.63;;;2.78;;
78824;SDS011;68176;45.554;10.220;2024-03-23T03:24:29;3.58;;;2.58;;
78824;SDS011;68176;45.554;10.220;2024-03-23T03:26:59;3.72;;;2.95;;
78824;SDS011;68176;45.554;10.220;2024-03-23T03:29:29;4.45;;;3.30;;
78824;SDS011;68176;45.554;10.220;2024-03-23T03:34:29;4.47;;;2.78;;
78824;SDS011;68176;45.554;10.220;2024-03-23T03:36:59;4.63;;;3.38;;
78824;SDS011;68176;45.554;10.220;2024-03-23T03:39:29;5.50;;;3.08;;
78824;SDS011;68176;45.554;10.220;2024-03-23T03:44:29;4.55;;;2.72;;
78824;SDS011;68176;45.554;10.220;2024-03-23T03:49:29;4.05;;;2.78;;
78824;SDS011;68176;45.554;10.220;2024-03-23T03:51:59;3.92;;;2.75;;
78824;SDS011;68176;45.554;10.220;2024-03-23T03:54:29;4.80;;;3.00;;
78824;SDS011;68176;45.554;10.220;2024-03-23T03:56:59;5.93;;;3.42;;
78824;SDS011;68176;45.554;10.220;2024-03-23T03:59:29;4.53;;;3.10;;
78824;SDS011;68176;45.554;10.220;2024-03-23T04:01:59;5.65;;;3.50;;
78824;SDS011;68176;45.554;10.220;2024-03-23T04:04:29;4.07;;;2.75;;
78824;SDS011;68176;45.554;10.220;2024-03-23T04:06:59;4.38;;;2.83;;
78824;SDS011;68176;45.554;10.220;2024-03-23T04:09:29;5.00;;;3.28;;
78824;SDS011;68176;45.554;10.220;2024-03-23T04:11:59;4.97;;;2.97;;
78824;SDS011;68176;45.554;10.220;2024-03-23T04:14:29;3.92;;;2.65;;
78824;SDS011;68176;45.554;10.220;2024-03-23T04:16:59;5.43;;;3.20;;
78824;SDS011;68176;45.554;10.220;2024-03-23T04:19:29;6.53;;;3.17;;
78824;SDS011;68176;45.554;10.220;2024-03-23T04:21:59;4.50;;;3.35;;
78824;SDS011;68176;45.554;10.220;2024-03-23T04:24:29;4.53;;;3.17;;
78824;SDS011;68176;45.554;10.220;2024-03-23T04:26:59;5.40;;;3.53;;
78824;SDS011;68176;45.554;10.220;2024-03-23T04:29:29;4.13;;;2.92;;
78824;SDS011;68176;45.554;10.220;2024-03-23T04:31:59;4.72;;;3.25;;
78824;SDS011;68176;45.554;10.220;2024-03-23T04:34:29;4.60;;;3.25;;
78824;SDS011;68176;45.554;10.220;2024-03-23T04:36:59;4.55;;;2.83;;
78824;SDS011;68176;45.554;10.220;2024-03-23T04:39:29;4.13;;;2.65;;
78824;SDS011;68176;45.554;10.220;2024-03-23T04:41:59;4.63;;;2.78;;
78824;SDS011;68176;45.554;10.220;2024-03-23T04:44:29;3.75;;;2.50;;
78824;SDS011;68176;45.554;10.220;2024-03-23T04:47:00;4.63;;;2.97;;
78824;SDS011;68176;45.554;10.220;2024-03-23T04:49:29;4.10;;;3.22;;
78824;SDS011;68176;45.554;10.220;2024-03-23T04:51:59;3.88;;;2.67;;
78824;SDS011;68176;45.554;10.220;2024-03-23T04:54:30;4.47;;;2.85;;
78824;SDS011;68176;45.554;10.220;2024-03-23T04:57:00;4.13;;;3.08;;
78824;SDS011;68176;45.554;10.220;2024-03-23T04:59:30;4.03;;;2.72;;
78824;SDS011;68176;45.554;10.220;2024-03-23T05:02:00;4.20;;;2.50;;
78824;SDS011;68176;45.554;10.220;2024-03-23T05:04:30;4.15;;;3.22;;
78824;SDS011;68176;45.554;10.220;2024-03-23T05:07:00;4.88;;;3.33;;
78824;SDS011;68176;45.554;10.220;2024-03-23T05:09:30;4.95;;;2.92;;
78824;SDS011;68176;45.554;10.220;2024-03-23T05:12:00;5.68;;;2.83;;
78824;SDS011;68176;45.554;10.220;2024-03-23T05:14:30;4.07;;;3.13;;
78824;SDS011;68176;45.554;10.220;2024-03-23T05:17:00;5.90;;;2.78;;
78824;SDS011;68176;45.554;10.220;2024-03-23T05:19:30;4.05;;;2.75;;
78824;SDS011;68176;45.554;10.220;2024-03-23T05:22:00;3.58;;;2.55;;
78824;SDS011;68176;45.554;10.220;2024-03-23T05:24:30;6.47;;;3.35;;
78824;SDS011;68176;45.554;10.220;2024-03-23T05:27:00;4.93;;;3.42;;
78824;SDS011;68176;45.554;10.220;2024-03-23T05:29:30;4.18;;;2.78;;
78824;SDS011;68176;45.554;10.220;2024-03-23T05:32:00;4.82;;;2.97;;
78824;SDS011;68176;45.554;10.220;2024-03-23T05:34:30;4.55;;;3.15;;
78824;SDS011;68176;45.554;10.220;2024-03-23T05:37:00;4.75;;;3.08;;
78824;SDS011;68176;45.554;10.220;2024-03-23T05:39:30;4.30;;;2.65;;
78824;SDS011;68176;45.554;10.220;2024-03-23T05:42:00;3.95;;;2.85;;
78824;SDS011;68176;45.554;10.220;2024-03-23T05:44:30;4.10;;;3.05;;
78824;SDS011;68176;45.554;10.220;2024-03-23T05:47:00;4.22;;;2.95;;
78824;SDS011;68176;45.554;10.220;2024-03-23T05:49:30;6.40;;;3.63;;
78824;SDS011;68176;45.554;10.220;2024-03-23T05:52:00;4.45;;;2.90;;
78824;SDS011;68176;45.554;10.220;2024-03-23T05:54:30;3.85;;;2.80;;
78824;SDS011;68176;45.554;10.220;2024-03-23T05:57:00;4.82;;;2.92;;
78824;SDS011;68176;45.554;10.220;2024-03-23T05:59:30;4.50;;;3.38;;
78824;SDS011;68176;45.554;10.220;2024-03-23T06:02:00;4.47;;;2.83;;
78824;SDS011;68176;45.554;10.220;2024-03-23T06:04:30;3.35;;;2.50;;
78824;SDS011;68176;45.554;10.220;2024-03-23T06:07:00;4.95;;;3.28;;
78824;SDS011;68176;45.554;10.220;2024-03-23T06:09:30;5.03;;;3.28;;
78824;SDS011;68176;45.554;10.220;2024-03-23T06:12:00;4.60;;;2.75;;
78824;SDS011;68176;45.554;10.220;2024-03-23T06:14:30;5.07;;;2.97;;
78824;SDS011;68176;45.554;10.220;2024-03-23T06:17:00;3.92;;;3.35;;
78824;SDS011;68176;45.554;10.220;2024-03-23T06:19:30;3.67;;;2.75;;
78824;SDS011;68176;45.554;10.220;2024-03-23T06:22:00;4.13;;;2.83;;
78824;SDS011;68176;45.554;10.220;2024-03-23T06:24:30;4.55;;;3.10;;
78824;SDS011;68176;45.554;10.220;2024-03-23T06:27:00;6.10;;;3.47;;
78824;SDS011;68176;45.554;10.220;2024-03-23T06:29:30;6.22;;;2.83;;
78824;SDS011;68176;45.554;10.220;2024-03-23T06:32:00;4.53;;;3.15;;
78824;SDS011;68176;45.554;10.220;2024-03-23T06:34:30;4.57;;;3.08;;
78824;SDS011;68176;45.554;10.220;2024-03-23T06:37:00;4.03;;;2.95;;
78824;SDS011;68176;45.554;10.220;2024-03-23T06:39:30;3.45;;;2.50;;
78824;SDS011;68176;45.554;10.220;2024-03-23T06:42:00;5.03;;;3.40;;
78824;SDS011;68176;45.554;10.220;2024-03-23T06:44:30;5.03;;;3.47;;
78824;SDS011;68176;45.554;10.220;2024-03-23T06:47:00;4.60;;;3.42;;
78824;SDS011;68176;45.554;10.220;2024-03-23T06:49:30;4.75;;;3.03;;
78824;SDS011;68176;45.554;10.220;2024-03-23T06:52:00;3.75;;;2.88;;
78824;SDS011;68176;45.554;10.220;2024-03-23T06:54:30;4.20;;;2.80;;
78824;SDS011;68176;45.554;10.220;2024-03-23T06:57:00;4.60;;;3.13;;
78824;SDS011;68176;45.554;10.220;2024-03-23T06:59:30;4.55;;;2.95;;
78824;SDS011;68176;45.554;10.220;2024-03-23T07:02:00;4.45;;;2.72;;
78824;SDS011;68176;45.554;10.220;2024-03-23T07:07:00;23.77;;;15.88;;
78824;SDS011;68176;45.554;10.220;2024-03-23T07:09:30;27.55;;;16.30;;
78824;SDS011;68176;45.554;10.220;2024-03-23T07:12:00;32.25;;;18.50;;
78824;SDS011;68176;45.554;10.220;2024-03-23T07:14:30;35.30;;;18.10;;
78824;SDS011;68176;45.554;10.220;2024-03-23T07:17:00;32.35;;;20.67;;
78824;SDS011;68176;45.554;10.220;2024-03-23T07:19:30;29.30;;;17.73;;
78824;SDS011;68176;45.554;10.220;2024-03-23T07:22:00;34.55;;;18.52;;
78824;SDS011;68176;45.554;10.220;2024-03-23T07:24:30;31.75;;;19.58;;
78824;SDS011;68176;45.554;10.220;2024-03-23T07:27:00;29.20;;;19.05;;
78824;SDS011;68176;45.554;10.220;2024-03-23T07:29:31;28.50;;;19.05;;
78824;SDS011;68176;45.554;10.220;2024-03-23T07:32:00;30.52;;;17.42;;
78824;SDS011;68176;45.554;10.220;2024-03-23T07:34:30;29.73;;;19.75;;
78824;SDS011;68176;45.554;10.220;2024-03-23T07:37:00;28.23;;;17.77;;
78824;SDS011;68176;45.554;10.220;2024-03-23T07:39:30;29.13;;;18.10;;
78824;SDS011;68176;45.554;10.220;2024-03-23T07:42:00;26.92;;;16.85;;
78824;SDS011;68176;45.554;10.220;2024-03-23T07:44:30;29.33;;;15.55;;
78824;SDS011;68176;45.554;10.220;2024-03-23T07:47:00;25.98;;;15.85;;
78824;SDS011;68176;45.554;10.220;2024-03-23T07:49:30;26.15;;;16.58;;
78824;SDS011;68176;45.554;10.220;2024-03-23T07:52:00;26.27;;;15.27;;
78824;SDS011;68176;45.554;10.220;2024-03-23T07:54:30;24.40;;;16.13;;
78824;SDS011;68176;45.554;10.220;2024-03-23T07:57:00;23.63;;;14.98;;
78824;SDS011;68176;45.554;10.220;2024-03-23T07:59:30;21.83;;;14.50;;
78824;SDS011;68176;45.554;10.220;2024-03-23T08:02:00;21.63;;;13.32;;
78824;SDS011;68176;45.554;10.220;2024-03-23T08:07:01;28.20;;;15.15;;
78824;SDS011;68176;45.554;10.220;2024-03-23T08:09:31;27.27;;;16.45;;
78824;SDS011;68176;45.554;10.220;2024-03-23T08:12:00;34.72;;;18.23;;
78824;SDS011;68176;45.554;10.220;2024-03-23T08:14:30;28.92;;;17.10;;
78824;SDS011;68176;45.554;10.220;2024-03-23T08:17:00;28.50;;;18.30;;
78824;SDS011;68176;45.554;10.220;2024-03-23T08:19:31;28.48;;;17.15;;
78824;SDS011;68176;45.554;10.220;2024-03-23T08:22:00;26.60;;;15.98;;
78824;SDS011;68176;45.554;10.220;2024-03-23T08:24:31;33.10;;;16.88;;
78824;SDS011;68176;45.554;10.220;2024-03-23T08:27:01;29.15;;;16.98;;
78824;SDS011;68176;45.554;10.220;2024-03-23T08:29:31;30.20;;;16.58;;
78824;SDS011;68176;45.554;10.220;2024-03-23T08:32:01;28.98;;;16.58;;
78824;SDS011;68176;45.554;10.220;2024-03-23T08:34:31;27.70;;;18.23;;
78824;SDS011;68176;45.554;10.220;2024-03-23T08:37:01;25.15;;;15.20;;
78824;SDS011;68176;45.554;10.220;2024-03-23T08:39:31;27.05;;;16.23;;
78824;SDS011;68176;45.554;10.220;2024-03-23T08:42:01;24.60;;;15.45;;
78824;SDS011;68176;45.554;10.220;2024-03-23T08:47:01;25.40;;;14.48;;
78824;SDS011;68176;45.554;10.220;2024-03-23T08:49:31;25.73;;;16.05;;
78824;SDS011;68176;45.554;10.220;2024-03-23T08:52:01;26.52;;;14.40;;
78824;SDS011;68176;45.554;10.220;2024-03-23T08:54:31;22.73;;;13.93;;
78824;SDS011;68176;45.554;10.220;2024-03-23T08:57:01;24.70;;;14.68;;
78824;SDS011;68176;45.554;10.220;2024-03-23T08:59:31;23.48;;;13.38;;
78824;SDS011;68176;45.554;10.220;2024-03-23T09:02:01;24.13;;;13.80;;
78824;SDS011;68176;45.554;10.220;2024-03-23T09:04:31;19.10;;;12.60;;
78824;SDS011;68176;45.554;10.220;2024-03-23T09:07:01;19.90;;;12.73;;
78824;SDS011;68176;45.554;10.220;2024-03-23T09:09:31;21.13;;;12.82;;
78824;SDS011;68176;45.554;10.220;2024-03-23T09:12:01;21.75;;;13.00;;
78824;SDS011;68176;45.554;10.220;2024-03-23T09:14:31;23.35;;;13.27;;
78824;SDS011;68176;45.554;10.220;2024-03-23T09:17:01;22.17;;;12.15;;
78824;SDS011;68176;45.554;10.220;2024-03-23T09:19:31;20.20;;;12.48;;
78824;SDS011;68176;45.554;10.220;2024-03-23T09:22:01;18.80;;;11.70;;
78824;SDS011;68176;45.554;10.220;2024-03-23T09:24:31;18.50;;;11.60;;
78824;SDS011;68176;45.554;10.220;2024-03-23T09:27:01;23.70;;;12.50;;
78824;SDS011;68176;45.554;10.220;2024-03-23T09:29:31;20.13;;;11.30;;
78824;SDS011;68176;45.554;10.220;2024-03-23T09:32:01;21.60;;;12.13;;
78824;SDS011;68176;45.554;10.220;2024-03-23T09:34:31;19.08;;;10.45;;
78824;SDS011;68176;45.554;10.220;2024-03-23T09:37:01;17.17;;;11.15;;
78824;SDS011;68176;45.554;10.220;2024-03-23T09:39:31;18.60;;;10.75;;
78824;SDS011;68176;45.554;10.220;2024-03-23T09:42:01;17.52;;;11.18;;
78824;SDS011;68176;45.554;10.220;2024-03-23T09:44:31;16.50;;;10.13;;
78824;SDS011;68176;45.554;10.220;2024-03-23T09:49:31;17.25;;;9.38;;
78824;SDS011;68176;45.554;10.220;2024-03-23T09:52:02;13.37;;;8.77;;
78824;SDS011;68176;45.554;10.220;2024-03-23T09:54:31;14.65;;;9.77;;
78824;SDS011;68176;45.554;10.220;2024-03-23T09:57:01;16.27;;;9.65;;
78824;SDS011;68176;45.554;10.220;2024-03-23T09:59:32;12.52;;;8.23;;
78824;SDS011;68176;45.554;10.220;2024-03-23T10:02:01;15.90;;;8.73;;
78824;SDS011;68176;45.554;10.220;2024-03-23T10:04:37;12.88;;;8.20;;
78824;SDS011;68176;45.554;10.220;2024-03-23T10:07:13;11.97;;;7.90;;
78824;SDS011;68176;45.554;10.220;2024-03-23T10:09:39;16.40;;;8.60;;
78824;SDS011;68176;45.554;10.220;2024-03-23T10:12:09;7.60;;;3.80;;
78824;SDS011;68176;45.554;10.220;2024-03-23T10:14:39;14.33;;;8.00;;
78824;SDS011;68176;45.554;10.220;2024-03-23T10:17:18;8.30;;;5.80;;
78824;SDS011;68176;45.554;10.220;2024-03-23T10:19:50;9.47;;;6.17;;
78824;SDS011;68176;45.554;10.220;2024-03-23T10:22:20;12.90;;;7.00;;
78824;SDS011;68176;45.554;10.220;2024-03-23T10:24:47;9.70;;;5.80;;
78824;SDS011;68176;45.554;10.220;2024-03-23T10:27:20;13.35;;;6.70;;
78824;SDS011;68176;45.554;10.220;2024-03-23T10:29:47;6.05;;;3.15;;
78824;SDS011;68176;45.554;10.220;2024-03-23T10:32:14;10.60;;;7.05;;
78824;SDS011;68176;45.554;10.220;2024-03-23T10:34:44;10.57;;;5.85;;
78824;SDS011;68176;45.554;10.220;2024-03-23T10:37:13;12.57;;;6.60;;
78824;SDS011;68176;45.554;10.220;2024-03-23T10:39:43;13.07;;;6.45;;
78824;SDS011;68176;45.554;10.220;2024-03-23T10:42:14;10.10;;;6.22;;
78824;SDS011;68176;45.554;10.220;2024-03-23T10:44:44;9.10;;;6.32;;
78824;SDS011;68176;45.554;10.220;2024-03-23T10:47:13;11.85;;;6.40;;
78824;SDS011;68176;45.554;10.220;2024-03-23T10:49:44;10.77;;;6.43;;
78824;SDS011;68176;45.554;10.220;2024-03-23T10:52:13;8.60;;;5.70;;
78824;SDS011;68176;45.554;10.220;2024-03-23T10:54:44;10.20;;;6.30;;
78824;SDS011;68176;45.554;10.220;2024-03-23T10:57:17;7.20;;;5.60;;
78824;SDS011;68176;45.554;10.220;2024-03-23T10:59:45;3.50;;;2.70;;
78824;SDS011;68176;45.554;10.220;2024-03-23T11:02:20;12.10;;;5.07;;
78824;SDS011;68176;45.554;10.220;2024-03-23T11:04:46;6.80;;;2.90;;
78824;SDS011;68176;45.554;10.220;2024-03-23T11:09:51;6.93;;;5.70;;
78824;SDS011;68176;45.554;10.220;2024-03-23T11:14:47;4.70;;;3.70;;
78824;SDS011;68176;45.554;10.220;2024-03-23T11:17:19;7.18;;;5.22;;
78824;SDS011;68176;45.554;10.220;2024-03-23T11:20:01;6.00;;;3.30;;
78824;SDS011;68176;45.554;10.220;2024-03-23T11:27:51;7.10;;;4.20;;
78824;SDS011;68176;45.554;10.220;2024-03-23T11:30:21;3.60;;;2.25;;
78824;SDS011;68176;45.554;10.220;2024-03-23T11:32:47;5.70;;;3.70;;
78824;SDS011;68176;45.554;10.220;2024-03-23T11:40:31;5.85;;;4.43;;
78824;SDS011;68176;45.554;10.220;2024-03-23T11:43:01;11.00;;;5.90;;
78824;SDS011;68176;45.554;10.220;2024-03-23T11:45:28;10.80;;;5.60;;
78824;SDS011;68176;45.554;10.220;2024-03-23T11:48:05;6.60;;;4.80;;
78824;SDS011;68176;45.554;10.220;2024-03-23T11:50:32;9.53;;;4.80;;
78824;SDS011;68176;45.554;10.220;2024-03-23T11:55:44;6.60;;;4.45;;
78824;SDS011;68176;45.554;10.220;2024-03-23T11:58:11;9.23;;;5.13;;
78824;SDS011;68176;45.554;10.220;2024-03-23T12:00:37;10.40;;;2.80;;
78824;SDS011;68176;45.554;10.220;2024-03-23T12:03:05;8.05;;;5.57;;
78824;SDS011;68176;45.554;10.220;2024-03-23T12:05:35;7.68;;;4.82;;
78824;SDS011;68176;45.554;10.220;2024-03-23T12:08:15;10.55;;;4.72;;
78824;SDS011;68176;45.554;10.220;2024-03-23T12:10:44;8.57;;;4.97;;
78824;SDS011;68176;45.554;10.220;2024-03-23T12:13:11;7.40;;;4.90;;
78824;SDS011;68176;45.554;10.220;2024-03-23T12:15:38;9.63;;;4.75;;
78824;SDS011;68176;45.554;10.220;2024-03-23T12:18:08;5.90;;;4.53;;
78824;SDS011;68176;45.554;10.220;2024-03-23T12:20:38;8.88;;;4.40;;
78824;SDS011;68176;45.554;10.220;2024-03-23T12:23:08;8.00;;;4.72;;
78824;SDS011;68176;45.554;10.220;2024-03-23T12:25:38;6.90;;;4.22;;
78824;SDS011;68176;45.554;10.220;2024-03-23T12:28:08;5.97;;;4.35;;
78824;SDS011;68176;45.554;10.220;2024-03-23T12:30:41;6.90;;;4.88;;
78824;SDS011;68176;45.554;10.220;2024-03-23T12:33:08;7.35;;;4.70;;
78824;SDS011;68176;45.554;10.220;2024-03-23T12:35:38;6.43;;;3.33;;
78824;SDS011;68176;45.554;10.220;2024-03-23T12:38:08;5.97;;;4.22;;
78824;SDS011;68176;45.554;10.220;2024-03-23T12:40:38;6.63;;;4.45;;
78824;SDS011;68176;45.554;10.220;2024-03-23T12:43:08;6.10;;;4.10;;
78824;SDS011;68176;45.554;10.220;2024-03-23T12:45:38;6.53;;;4.20;;
78824;SDS011;68176;45.554;10.220;2024-03-23T12:48:08;6.93;;;4.43;;
78824;SDS011;68176;45.554;10.220;2024-03-23T12:50:38;5.95;;;3.78;;
78824;SDS011;68176;45.554;10.220;2024-03-23T12:53:08;5.22;;;3.63;;
78824;SDS011;68176;45.554;10.220;2024-03-23T12:58:08;7.82;;;4.32;;
78824;SDS011;68176;45.554;10.220;2024-03-23T13:00:38;4.90;;;3.67;;
78824;SDS011;68176;45.554;10.220;2024-03-23T13:03:08;5.32;;;3.47;;
78824;SDS011;68176;45.554;10.220;2024-03-23T13:08:08;6.32;;;4.25;;
78824;SDS011;68176;45.554;10.220;2024-03-23T13:10:38;5.45;;;3.95;;
78824;SDS011;68176;45.554;10.220;2024-03-23T13:13:08;5.97;;;3.90;;
78824;SDS011;68176;45.554;10.220;2024-03-23T13:15:38;6.68;;;3.88;;
78824;SDS011;68176;45.554;10.220;2024-03-23T13:18:08;5.65;;;3.75;;
78824;SDS011;68176;45.554;10.220;2024-03-23T13:20:38;6.35;;;3.60;;
78824;SDS011;68176;45.554;10.220;2024-03-23T13:23:08;6.00;;;3.33;;
78824;SDS011;68176;45.554;10.220;2024-03-23T13:25:38;7.18;;;4.25;;
78824;SDS011;68176;45.554;10.220;2024-03-23T13:28:08;5.18;;;3.63;;
78824;SDS011;68176;45.554;10.220;2024-03-23T13:30:38;4.85;;;3.13;;
78824;SDS011;68176;45.554;10.220;2024-03-23T13:33:08;5.05;;;3.83;;
78824;SDS011;68176;45.554;10.220;2024-03-23T13:35:38;4.65;;;3.15;;
78824;SDS011;68176;45.554;10.220;2024-03-23T13:38:08;5.10;;;3.60;;
78824;SDS011;68176;45.554;10.220;2024-03-23T13:40:38;5.00;;;3.88;;
78824;SDS011;68176;45.554;10.220;2024-03-23T13:43:08;5.13;;;3.53;;
78824;SDS011;68176;45.554;10.220;2024-03-23T13:45:38;4.53;;;3.75;;
78824;SDS011;68176;45.554;10.220;2024-03-23T13:48:08;5.78;;;3.45;;
78824;SDS011;68176;45.554;10.220;2024-03-23T13:50:38;3.65;;;2.60;;
78824;SDS011;68176;45.554;10.220;2024-03-23T13:53:08;5.30;;;3.58;;
78824;SDS011;68176;45.554;10.220;2024-03-23T13:55:45;5.10;;;3.65;;
78824;SDS011;68176;45.554;10.220;2024-03-23T13:58:11;4.35;;;3.00;;
78824;SDS011;68176;45.554;10.220;2024-03-23T14:00:38;6.25;;;3.03;;
78824;SDS011;68176;45.554;10.220;2024-03-23T14:03:09;5.20;;;3.00;;
78824;SDS011;68176;45.554;10.220;2024-03-23T14:05:39;3.95;;;3.30;;
78824;SDS011;68176;45.554;10.220;2024-03-23T14:08:09;4.93;;;3.20;;
78824;SDS011;68176;45.554;10.220;2024-03-23T14:10:42;3.90;;;2.85;;
78824;SDS011;68176;45.554;10.220;2024-03-23T14:13:09;3.88;;;2.90;;
78824;SDS011;68176;45.554;10.220;2024-03-23T14:15:38;6.18;;;3.00;;
78824;SDS011;68176;45.554;10.220;2024-03-23T14:18:08;5.15;;;3.47;;
78824;SDS011;68176;45.554;10.220;2024-03-23T14:20:39;4.82;;;3.38;;
78824;SDS011;68176;45.554;10.220;2024-03-23T14:23:08;3.95;;;2.95;;
78824;SDS011;68176;45.554;10.220;2024-03-23T14:25:38;5.05;;;3.20;;
78824;SDS011;68176;45.554;10.220;2024-03-23T14:30:39;4.90;;;2.88;;
78824;SDS011;68176;45.554;10.220;2024-03-23T14:33:09;5.10;;;3.65;;
78824;SDS011;68176;45.554;10.220;2024-03-23T14:35:39;5.95;;;3.28;;
78824;SDS011;68176;45.554;10.220;2024-03-23T14:38:09;6.05;;;3.65;;
78824;SDS011;68176;45.554;10.220;2024-03-23T14:40:39;4.30;;;3.08;;
78824;SDS011;68176;45.554;10.220;2024-03-23T14:43:08;4.97;;;3.50;;
78824;SDS011;68176;45.554;10.220;2024-03-23T14:45:45;4.47;;;3.15;;
78824;SDS011;68176;45.554;10.220;2024-03-23T14:48:31;3.45;;;2.25;;
78824;SDS011;68176;45.554;10.220;2024-03-23T14:50:57;1.95;;;1.35;;
78824;SDS011;68176;45.554;10.220;2024-03-23T14:53:25;3.78;;;2.65;;
78824;SDS011;68176;45.554;10.220;2024-03-23T14:55:55;9.82;;;7.45;;
78824;SDS011;68176;45.554;10.220;2024-03-23T14:58:25;13.15;;;9.65;;
78824;SDS011;68176;45.554;10.220;2024-03-23T15:01:01;16.98;;;10.45;;
78824;SDS011;68176;45.554;10.220;2024-03-23T15:03:31;8.85;;;5.80;;
78824;SDS011;68176;45.554;10.220;2024-03-23T15:05:57;5.70;;;4.70;;
78824;SDS011;68176;45.554;10.220;2024-03-23T15:08:27;7.80;;;5.20;;
78824;SDS011;68176;45.554;10.220;2024-03-23T15:10:59;14.30;;;8.20;;
78824;SDS011;68176;45.554;10.220;2024-03-23T15:13:25;9.85;;;7.90;;
78824;SDS011;68176;45.554;10.220;2024-03-23T15:18:25;45.63;;;11.80;;
78824;SDS011;68176;45.554;10.220;2024-03-23T15:20:55;17.48;;;8.57;;
78824;SDS011;68176;45.554;10.220;2024-03-23T15:23:25;15.77;;;9.18;;
78824;SDS011;68176;45.554;10.220;2024-03-23T15:25:58;14.52;;;8.63;;
78824;SDS011;68176;45.554;10.220;2024-03-23T15:28:25;10.63;;;7.73;;
78824;SDS011;68176;45.554;10.220;2024-03-23T15:31:18;9.03;;;6.93;;
78824;SDS011;68176;45.554;10.220;2024-03-23T15:33:43;8.85;;;6.60;;
78824;SDS011;68176;45.554;10.220;2024-03-23T15:36:12;11.32;;;7.20;;
78824;SDS011;68176;45.554;10.220;2024-03-23T15:38:42;12.52;;;7.35;;
78824;SDS011;68176;45.554;10.220;2024-03-23T15:41:12;11.70;;;7.10;;
78824;SDS011;68176;45.554;10.220;2024-03-23T15:43:42;13.55;;;6.72;;
78824;SDS011;68176;45.554;10.220;2024-03-23T15:46:12;10.07;;;6.75;;
78824;SDS011;68176;45.554;10.220;2024-03-23T15:48:42;9.80;;;6.88;;
78824;SDS011;68176;45.554;10.220;2024-03-23T15:51:12;6.60;;;5.07;;
78824;SDS011;68176;45.554;10.220;2024-03-23T15:53:42;7.68;;;5.88;;
78824;SDS011;68176;45.554;10.220;2024-03-23T15:56:12;14.07;;;7.07;;
78824;SDS011;68176;45.554;10.220;2024-03-23T15:58:42;10.43;;;6.25;;
78824;SDS011;68176;45.554;10.220;2024-03-23T16:01:12;10.32;;;6.50;;
78824;SDS011;68176;45.554;10.220;2024-03-23T16:03:42;8.43;;;5.70;;
78824;SDS011;68176;45.554;10.220;2024-03-23T16:06:12;7.80;;;4.65;;
78824;SDS011;68176;45.554;10.220;2024-03-23T16:08:42;13.23;;;5.65;;
78824;SDS011;68176;45.554;10.220;2024-03-23T16:11:12;9.60;;;4.30;;
78824;SDS011;68176;45.554;10.220;2024-03-23T16:13:42;8.90;;;5.55;;
78824;SDS011;68176;45.554;10.220;2024-03-23T16:16:12;10.98;;;5.25;;
78824;SDS011;68176;45.554;10.220;2024-03-23T16:18:42;8.25;;;5.45;;
78824;SDS011;68176;45.554;10.220;2024-03-23T16:21:12;7.13;;;5.25;;
78824;SDS011;68176;45.554;10.220;2024-03-23T16:23:42;8.30;;;5.32;;